IGO301 OKKK-VABB
Flight info
| Callsign | IGO301 |
|---|---|
| Flight time | 3h 32m |
| Altitude | 35000 |
| Route | OKKK/33R N0458F370 SESR4F SESRU M677 OBNET DCT TONVO P307 VAXIM L301 KARKU M638 EXOLU POKO2A VABB/27 |
| Aircraft | A321/M-SDFGHIRWY/C |
Departure
| Time | 2026-05-08 19:09 |
|---|---|
| Airport | Kuwait International Airport (OKKK) |
Arrival
| Time | 2026-05-08 22:41 |
|---|---|
| Airport | Chhatrapati Shivaji Maharaj International Airport (VABB) |
| Time | Latitude | Longitude | Altitude | Speed | Heading |
|---|---|---|---|---|---|
| 2026-05-08 18:37 | 29.23841 | 47.96913 | 154 ft | 0 kts | 332° |
| 2026-05-08 18:58 | 29.23825 | 47.96923 | 154 ft | 3 kts | 332° |
| 2026-05-08 18:58 | 29.23808 | 47.96933 | 154 ft | 3 kts | 332° |
| 2026-05-08 18:59 | 29.23792 | 47.96943 | 155 ft | 3 kts | 332° |
| 2026-05-08 18:59 | 29.23782 | 47.96951 | 155 ft | 3 kts | 298° |
| 2026-05-08 18:59 | 29.23779 | 47.96971 | 155 ft | 3 kts | 245° |
| 2026-05-08 18:59 | 29.23781 | 47.96975 | 155 ft | 0 kts | 238° |
| 2026-05-08 19:03 | 29.23775 | 47.96964 | 155 ft | 9 kts | 239° |
| 2026-05-08 19:04 | 29.23738 | 47.96881 | 154 ft | 13 kts | 245° |
| 2026-05-08 19:04 | 29.23698 | 47.96782 | 153 ft | 15 kts | 245° |
| 2026-05-08 19:04 | 29.23655 | 47.96666 | 152 ft | 16 kts | 238° |
| 2026-05-08 19:04 | 29.23560 | 47.96662 | 153 ft | 18 kts | 154° |
| 2026-05-08 19:05 | 29.23431 | 47.96732 | 155 ft | 21 kts | 156° |
| 2026-05-08 19:05 | 29.23297 | 47.96803 | 156 ft | 22 kts | 155° |
| 2026-05-08 19:05 | 29.23157 | 47.96876 | 158 ft | 22 kts | 155° |
| 2026-05-08 19:05 | 29.23018 | 47.96950 | 160 ft | 22 kts | 155° |
| 2026-05-08 19:06 | 29.22867 | 47.97031 | 161 ft | 29 kts | 155° |
| 2026-05-08 19:06 | 29.22640 | 47.97150 | 164 ft | 42 kts | 155° |
| 2026-05-08 19:06 | 29.22346 | 47.97308 | 168 ft | 49 kts | 157° |
| 2026-05-08 19:06 | 29.22040 | 47.97468 | 172 ft | 48 kts | 153° |
| 2026-05-08 19:07 | 29.21781 | 47.97608 | 175 ft | 35 kts | 155° |
| 2026-05-08 19:07 | 29.21566 | 47.97723 | 178 ft | 34 kts | 155° |
| 2026-05-08 19:07 | 29.21359 | 47.97834 | 180 ft | 29 kts | 155° |
| 2026-05-08 19:07 | 29.21267 | 47.97848 | 181 ft | 10 kts | 226° |
| 2026-05-08 19:08 | 29.21246 | 47.97752 | 181 ft | 12 kts | 288° |
| 2026-05-08 19:08 | 29.21290 | 47.97663 | 179 ft | 16 kts | 303° |
| 2026-05-08 19:08 | 29.21379 | 47.97571 | 177 ft | 18 kts | 335° |
| 2026-05-08 19:08 | 29.21623 | 47.97443 | 173 ft | 77 kts | 335° |
| 2026-05-08 19:09 | 29.22387 | 47.97039 | 166 ft | 163 kts | 334° |
| 2026-05-08 19:09 | 29.23555 | 47.96432 | 582 ft | 194 kts | 338° |
| 2026-05-08 19:09 | 29.24906 | 47.95739 | 1010 ft | 228 kts | 338° |
| 2026-05-08 19:09 | 29.26403 | 47.94974 | 1861 ft | 248 kts | 336° |
| 2026-05-08 19:10 | 29.28042 | 47.94135 | 2382 ft | 262 kts | 337° |
| 2026-05-08 19:10 | 29.29714 | 47.93334 | 2886 ft | 265 kts | 338° |
| 2026-05-08 19:10 | 29.31434 | 47.92509 | 3384 ft | 270 kts | 338° |
| 2026-05-08 19:10 | 29.33174 | 47.91671 | 3883 ft | 273 kts | 337° |
| 2026-05-08 19:11 | 29.34975 | 47.90909 | 4393 ft | 278 kts | 343° |
| 2026-05-08 19:11 | 29.36901 | 47.90623 | 4902 ft | 283 kts | 2° |
| 2026-05-08 19:11 | 29.38797 | 47.91191 | 5395 ft | 289 kts | 27° |
| 2026-05-08 19:11 | 29.40289 | 47.92732 | 5902 ft | 294 kts | 57° |
| 2026-05-08 19:12 | 29.41118 | 47.94885 | 6418 ft | 299 kts | 71° |
| 2026-05-08 19:12 | 29.41730 | 47.97195 | 6912 ft | 304 kts | 73° |
| 2026-05-08 19:12 | 29.42305 | 47.99507 | 7393 ft | 306 kts | 73° |
| 2026-05-08 19:12 | 29.42905 | 48.01896 | 7907 ft | 309 kts | 73° |
| 2026-05-08 19:13 | 29.43495 | 48.04250 | 8404 ft | 312 kts | 75° |
| 2026-05-08 19:13 | 29.43758 | 48.06719 | 8914 ft | 314 kts | 96° |
| 2026-05-08 19:13 | 29.43252 | 48.09152 | 9445 ft | 315 kts | 110° |
| 2026-05-08 19:13 | 29.42472 | 48.11515 | 9969 ft | 318 kts | 113° |
| 2026-05-08 19:14 | 29.41646 | 48.13877 | 10451 ft | 323 kts | 113° |
| 2026-05-08 19:14 | 29.40789 | 48.16333 | 10847 ft | 341 kts | 113° |
| 2026-05-08 19:14 | 29.39892 | 48.18929 | 11175 ft | 359 kts | 112° |
| 2026-05-08 19:14 | 29.38956 | 48.21659 | 11504 ft | 375 kts | 112° |
| 2026-05-08 19:15 | 29.37986 | 48.24498 | 11836 ft | 389 kts | 112° |
| 2026-05-08 19:15 | 29.36988 | 48.27424 | 12177 ft | 398 kts | 112° |
| 2026-05-08 19:15 | 29.35984 | 48.30367 | 12508 ft | 402 kts | 112° |
| 2026-05-08 19:15 | 29.34963 | 48.33359 | 12857 ft | 404 kts | 112° |
| 2026-05-08 19:16 | 29.33936 | 48.36370 | 13216 ft | 406 kts | 112° |
| 2026-05-08 19:16 | 29.32904 | 48.39388 | 13565 ft | 408 kts | 112° |
| 2026-05-08 19:16 | 29.31865 | 48.42428 | 13910 ft | 410 kts | 112° |
| 2026-05-08 19:16 | 29.30821 | 48.45478 | 14234 ft | 412 kts | 112° |
| 2026-05-08 19:17 | 29.29772 | 48.48539 | 14560 ft | 414 kts | 112° |
| 2026-05-08 19:17 | 29.28730 | 48.51576 | 14889 ft | 416 kts | 112° |
| 2026-05-08 19:17 | 29.27670 | 48.54665 | 15224 ft | 418 kts | 112° |
| 2026-05-08 19:17 | 29.26602 | 48.57774 | 15549 ft | 421 kts | 112° |
| 2026-05-08 19:18 | 29.25528 | 48.60899 | 15888 ft | 423 kts | 112° |
| 2026-05-08 19:18 | 29.24446 | 48.64043 | 16237 ft | 426 kts | 112° |
| 2026-05-08 19:18 | 29.23354 | 48.67212 | 16580 ft | 429 kts | 113° |
| 2026-05-08 19:18 | 29.22256 | 48.70398 | 16939 ft | 431 kts | 113° |
| 2026-05-08 19:19 | 29.21150 | 48.73601 | 17295 ft | 434 kts | 113° |
| 2026-05-08 19:19 | 29.20038 | 48.76821 | 17656 ft | 436 kts | 113° |
| 2026-05-08 19:19 | 29.18918 | 48.80061 | 18020 ft | 439 kts | 113° |
| 2026-05-08 19:19 | 29.17789 | 48.83321 | 18362 ft | 442 kts | 113° |
| 2026-05-08 19:20 | 29.16638 | 48.86593 | 18681 ft | 444 kts | 115° |
| 2026-05-08 19:20 | 29.15758 | 48.88706 | 18892 ft | 443 kts | 121° |
| 2026-05-08 19:20 | 29.13443 | 48.92586 | 19331 ft | 440 kts | 134° |
| 2026-05-08 19:20 | 29.11338 | 48.95052 | 19643 ft | 438 kts | 140° |
| 2026-05-08 19:21 | 29.09078 | 48.97389 | 19991 ft | 438 kts | 143° |
| 2026-05-08 19:21 | 29.06756 | 48.99646 | 20328 ft | 438 kts | 144° |
| 2026-05-08 19:21 | 29.04411 | 49.01870 | 20670 ft | 439 kts | 144° |
| 2026-05-08 19:21 | 29.02054 | 49.04100 | 21013 ft | 440 kts | 145° |
| 2026-05-08 19:22 | 28.99702 | 49.06339 | 21365 ft | 441 kts | 144° |
| 2026-05-08 19:22 | 28.97354 | 49.08592 | 21695 ft | 441 kts | 144° |
| 2026-05-08 19:22 | 28.95013 | 49.10854 | 22049 ft | 441 kts | 144° |
| 2026-05-08 19:22 | 28.92674 | 49.13122 | 22410 ft | 441 kts | 144° |
| 2026-05-08 19:23 | 28.90336 | 49.15393 | 22772 ft | 442 kts | 144° |
| 2026-05-08 19:23 | 28.87996 | 49.17671 | 23140 ft | 442 kts | 144° |
| 2026-05-08 19:23 | 28.85682 | 49.19980 | 23509 ft | 443 kts | 144° |
| 2026-05-08 19:23 | 28.83378 | 49.22331 | 23821 ft | 445 kts | 143° |
| 2026-05-08 19:24 | 28.81079 | 49.24701 | 24113 ft | 447 kts | 143° |
| 2026-05-08 19:24 | 28.78763 | 49.27095 | 24430 ft | 450 kts | 143° |
| 2026-05-08 19:24 | 28.76437 | 49.29495 | 24751 ft | 452 kts | 144° |
| 2026-05-08 19:24 | 28.74092 | 49.31906 | 25072 ft | 455 kts | 144° |
| 2026-05-08 19:25 | 28.71736 | 49.34324 | 25400 ft | 457 kts | 144° |
| 2026-05-08 19:25 | 28.69358 | 49.36758 | 25733 ft | 459 kts | 144° |
| 2026-05-08 19:25 | 28.67004 | 49.39166 | 26062 ft | 461 kts | 144° |
| 2026-05-08 19:25 | 28.64611 | 49.41611 | 26381 ft | 463 kts | 144° |
| 2026-05-08 19:26 | 28.62262 | 49.44139 | 26721 ft | 468 kts | 140° |
| 2026-05-08 19:26 | 28.60154 | 49.47004 | 27067 ft | 477 kts | 132° |
| 2026-05-08 19:26 | 28.58271 | 49.50140 | 27422 ft | 480 kts | 130° |
| 2026-05-08 19:26 | 28.56474 | 49.53363 | 27773 ft | 483 kts | 128° |
| 2026-05-08 19:27 | 28.54724 | 49.56636 | 28135 ft | 484 kts | 128° |
| 2026-05-08 19:27 | 28.52996 | 49.59927 | 28498 ft | 485 kts | 128° |
| 2026-05-08 19:27 | 28.51270 | 49.63222 | 28838 ft | 485 kts | 128° |
| 2026-05-08 19:27 | 28.49538 | 49.66517 | 29213 ft | 485 kts | 128° |
| 2026-05-08 19:28 | 28.47802 | 49.69800 | 29594 ft | 485 kts | 128° |
| 2026-05-08 19:28 | 28.46059 | 49.73080 | 29975 ft | 485 kts | 129° |
| 2026-05-08 19:28 | 28.44310 | 49.76352 | 30301 ft | 484 kts | 130° |
| 2026-05-08 19:28 | 28.42381 | 49.79429 | 30618 ft | 474 kts | 138° |
| 2026-05-08 19:29 | 28.40133 | 49.82102 | 30948 ft | 462 kts | 147° |
| 2026-05-08 19:29 | 28.37646 | 49.84342 | 31279 ft | 454 kts | 152° |
| 2026-05-08 19:29 | 28.35119 | 49.86392 | 31585 ft | 450 kts | 154° |
| 2026-05-08 19:29 | 28.32532 | 49.88385 | 31922 ft | 448 kts | 155° |
| 2026-05-08 19:30 | 28.29939 | 49.90333 | 32270 ft | 446 kts | 155° |
| 2026-05-08 19:30 | 28.27349 | 49.92264 | 32617 ft | 444 kts | 155° |
| 2026-05-08 19:30 | 28.24775 | 49.94187 | 32971 ft | 442 kts | 155° |
| 2026-05-08 19:30 | 28.22211 | 49.96111 | 33326 ft | 441 kts | 155° |
| 2026-05-08 19:31 | 28.19667 | 49.98029 | 33684 ft | 439 kts | 156° |
| 2026-05-08 19:31 | 28.17128 | 49.99949 | 33885 ft | 438 kts | 156° |
| 2026-05-08 19:31 | 28.14596 | 50.01866 | 33922 ft | 438 kts | 156° |
| 2026-05-08 19:31 | 28.12049 | 50.03791 | 34036 ft | 441 kts | 156° |
| 2026-05-08 19:32 | 28.09489 | 50.05725 | 34176 ft | 444 kts | 156° |
| 2026-05-08 19:32 | 28.06907 | 50.07675 | 34304 ft | 447 kts | 156° |
| 2026-05-08 19:32 | 28.04337 | 50.09617 | 34439 ft | 448 kts | 156° |
| 2026-05-08 19:32 | 28.01738 | 50.11583 | 34574 ft | 448 kts | 156° |
| 2026-05-08 19:33 | 27.99144 | 50.13545 | 34685 ft | 448 kts | 156° |
| 2026-05-08 19:33 | 27.96551 | 50.15505 | 34828 ft | 448 kts | 156° |
| 2026-05-08 19:33 | 27.93954 | 50.17466 | 34904 ft | 448 kts | 156° |
| 2026-05-08 19:34 | 27.88764 | 50.21381 | 34908 ft | 448 kts | 156° |
| 2026-05-08 19:34 | 27.83569 | 50.25291 | 34511 ft | 448 kts | 155° |
| 2026-05-08 19:34 | 27.80971 | 50.27244 | 34114 ft | 450 kts | 155° |
| 2026-05-08 19:35 | 27.78362 | 50.29204 | 33705 ft | 451 kts | 155° |
| 2026-05-08 19:35 | 27.75742 | 50.31170 | 33267 ft | 452 kts | 155° |
| 2026-05-08 19:35 | 27.73116 | 50.33141 | 32964 ft | 453 kts | 155° |
| 2026-05-08 19:36 | 27.67884 | 50.37067 | 32911 ft | 455 kts | 155° |
| 2026-05-08 19:36 | 27.62606 | 50.41028 | 32910 ft | 455 kts | 154° |
| 2026-05-08 19:37 | 27.57345 | 50.45038 | 32910 ft | 457 kts | 154° |
| 2026-05-08 19:37 | 27.52080 | 50.49085 | 32905 ft | 457 kts | 154° |
| 2026-05-08 19:38 | 27.46823 | 50.53120 | 32909 ft | 457 kts | 154° |
| 2026-05-08 19:38 | 27.41594 | 50.57123 | 32908 ft | 457 kts | 154° |
| 2026-05-08 19:39 | 27.36401 | 50.61090 | 32902 ft | 457 kts | 154° |
| 2026-05-08 19:40 | 27.35797 | 50.61551 | 32907 ft | 457 kts | 154° |
| 2026-05-08 19:41 | 27.30526 | 50.65571 | 32896 ft | 457 kts | 154° |
| 2026-05-08 19:41 | 27.30343 | 50.65711 | 32897 ft | 458 kts | 154° |
| 2026-05-08 19:42 | 27.26659 | 50.68517 | 32900 ft | 458 kts | 154° |
| 2026-05-08 19:42 | 27.21381 | 50.72536 | 32901 ft | 459 kts | 154° |
| 2026-05-08 19:43 | 27.16107 | 50.76600 | 32904 ft | 462 kts | 150° |
| 2026-05-08 19:43 | 27.11280 | 50.81503 | 32900 ft | 470 kts | 144° |
| 2026-05-08 19:44 | 27.08126 | 50.85013 | 32896 ft | 472 kts | 143° |
| 2026-05-08 19:45 | 27.06404 | 50.86966 | 32903 ft | 472 kts | 142° |
| 2026-05-08 19:46 | 27.02582 | 50.91325 | 32894 ft | 471 kts | 142° |
| 2026-05-08 19:46 | 26.99758 | 50.95082 | 32897 ft | 482 kts | 133° |
| 2026-05-08 19:46 | 26.96052 | 51.01384 | 32889 ft | 486 kts | 130° |
| 2026-05-08 19:47 | 26.93066 | 51.06787 | 32879 ft | 487 kts | 129° |
| 2026-05-08 19:47 | 26.88948 | 51.14318 | 32886 ft | 487 kts | 128° |
| 2026-05-08 19:48 | 26.86539 | 51.20086 | 32883 ft | 498 kts | 118° |
| 2026-05-08 19:48 | 26.84213 | 51.27416 | 32881 ft | 501 kts | 116° |
| 2026-05-08 19:49 | 26.82019 | 51.34831 | 32867 ft | 501 kts | 115° |
| 2026-05-08 19:49 | 26.79831 | 51.42240 | 32873 ft | 501 kts | 115° |
| 2026-05-08 19:50 | 26.77620 | 51.49636 | 32873 ft | 501 kts | 115° |
| 2026-05-08 19:50 | 26.75408 | 51.56980 | 32867 ft | 501 kts | 115° |
| 2026-05-08 19:51 | 26.73174 | 51.64375 | 32868 ft | 501 kts | 115° |
| 2026-05-08 19:51 | 26.70965 | 51.71734 | 32862 ft | 501 kts | 115° |
| 2026-05-08 19:52 | 26.68751 | 51.79125 | 32857 ft | 501 kts | 115° |
| 2026-05-08 19:52 | 26.66527 | 51.86528 | 32853 ft | 502 kts | 115° |
| 2026-05-08 19:53 | 26.64254 | 51.93911 | 32851 ft | 501 kts | 116° |
| 2026-05-08 19:53 | 26.61875 | 52.01222 | 32845 ft | 500 kts | 116° |
| 2026-05-08 19:54 | 26.59471 | 52.08523 | 32855 ft | 501 kts | 116° |
| 2026-05-08 19:54 | 26.57086 | 52.15789 | 32835 ft | 501 kts | 116° |
| 2026-05-08 19:55 | 26.54690 | 52.23106 | 32844 ft | 501 kts | 116° |
| 2026-05-08 19:55 | 26.52292 | 52.30422 | 32840 ft | 502 kts | 116° |
| 2026-05-08 19:56 | 26.49883 | 52.37755 | 32842 ft | 502 kts | 116° |
| 2026-05-08 19:56 | 26.47472 | 52.45083 | 32846 ft | 503 kts | 116° |
| 2026-05-08 19:57 | 26.45074 | 52.52354 | 32836 ft | 503 kts | 116° |
| 2026-05-08 19:57 | 26.42655 | 52.59675 | 32836 ft | 502 kts | 116° |
| 2026-05-08 19:58 | 26.40236 | 52.66982 | 32836 ft | 502 kts | 116° |
| 2026-05-08 19:58 | 26.37812 | 52.74293 | 32840 ft | 502 kts | 116° |
| 2026-05-08 19:59 | 26.35384 | 52.81598 | 32833 ft | 502 kts | 116° |
| 2026-05-08 19:59 | 26.32952 | 52.88896 | 32832 ft | 502 kts | 116° |
| 2026-05-08 20:00 | 26.30519 | 52.96176 | 32826 ft | 501 kts | 116° |
| 2026-05-08 20:00 | 26.28085 | 53.03453 | 32829 ft | 500 kts | 115° |
| 2026-05-08 20:01 | 26.25649 | 53.10714 | 32826 ft | 500 kts | 116° |
| 2026-05-08 20:01 | 26.23210 | 53.17974 | 32823 ft | 500 kts | 116° |
| 2026-05-08 20:02 | 26.20767 | 53.25232 | 32823 ft | 500 kts | 116° |
| 2026-05-08 20:02 | 26.18318 | 53.32478 | 32818 ft | 499 kts | 116° |
| 2026-05-08 20:03 | 26.15620 | 53.39526 | 32816 ft | 496 kts | 119° |
| 2026-05-08 20:03 | 26.12733 | 53.46502 | 32813 ft | 496 kts | 120° |
| 2026-05-08 20:04 | 26.09840 | 53.53485 | 32818 ft | 496 kts | 120° |
| 2026-05-08 20:04 | 26.06993 | 53.60428 | 32814 ft | 496 kts | 119° |
| 2026-05-08 20:05 | 26.04140 | 53.67419 | 32813 ft | 496 kts | 119° |
| 2026-05-08 20:05 | 26.01285 | 53.74416 | 32809 ft | 496 kts | 119° |
| 2026-05-08 20:06 | 25.98740 | 53.81590 | 32816 ft | 500 kts | 114° |
| 2026-05-08 20:06 | 25.96447 | 53.88909 | 32810 ft | 501 kts | 114° |
| 2026-05-08 20:07 | 25.94159 | 53.96227 | 32804 ft | 501 kts | 114° |
| 2026-05-08 20:07 | 25.91825 | 54.03528 | 32805 ft | 501 kts | 114° |
| 2026-05-08 20:08 | 25.89469 | 54.10810 | 32805 ft | 501 kts | 114° |
| 2026-05-08 20:08 | 25.87122 | 54.18037 | 32799 ft | 500 kts | 114° |
| 2026-05-08 20:09 | 25.84754 | 54.25315 | 32800 ft | 500 kts | 114° |
| 2026-05-08 20:09 | 25.82386 | 54.32583 | 32799 ft | 501 kts | 114° |
| 2026-05-08 20:10 | 25.80007 | 54.39867 | 32799 ft | 501 kts | 114° |
| 2026-05-08 20:10 | 25.77627 | 54.47138 | 32801 ft | 501 kts | 114° |
| 2026-05-08 20:11 | 25.75246 | 54.54400 | 32799 ft | 501 kts | 114° |
| 2026-05-08 20:11 | 25.72858 | 54.61676 | 32799 ft | 502 kts | 114° |
| 2026-05-08 20:12 | 25.70485 | 54.68896 | 32798 ft | 502 kts | 114° |
| 2026-05-08 20:12 | 25.68089 | 54.76178 | 32795 ft | 502 kts | 114° |
| 2026-05-08 20:13 | 25.65689 | 54.83459 | 32801 ft | 502 kts | 114° |
| 2026-05-08 20:13 | 25.63302 | 54.90688 | 32796 ft | 502 kts | 114° |
| 2026-05-08 20:14 | 25.60900 | 54.97944 | 32800 ft | 501 kts | 114° |
| 2026-05-08 20:14 | 25.58493 | 55.05197 | 32795 ft | 501 kts | 114° |
| 2026-05-08 20:15 | 25.56083 | 55.12443 | 32796 ft | 501 kts | 114° |
| 2026-05-08 20:15 | 25.53672 | 55.19682 | 32796 ft | 501 kts | 114° |
| 2026-05-08 20:16 | 25.51257 | 55.26917 | 32796 ft | 501 kts | 114° |
| 2026-05-08 20:16 | 25.48856 | 55.34095 | 32799 ft | 500 kts | 114° |
| 2026-05-08 20:17 | 25.46441 | 55.41306 | 32803 ft | 500 kts | 114° |
| 2026-05-08 20:17 | 25.44021 | 55.48516 | 32802 ft | 500 kts | 114° |
| 2026-05-08 20:18 | 25.41597 | 55.55724 | 32801 ft | 499 kts | 114° |
| 2026-05-08 20:18 | 25.39172 | 55.62921 | 32803 ft | 499 kts | 114° |
| 2026-05-08 20:19 | 25.36745 | 55.70114 | 32805 ft | 499 kts | 114° |
| 2026-05-08 20:19 | 25.34315 | 55.77299 | 32806 ft | 499 kts | 114° |
| 2026-05-08 20:20 | 25.31899 | 55.84432 | 32812 ft | 498 kts | 114° |
| 2026-05-08 20:20 | 25.29467 | 55.91598 | 32809 ft | 497 kts | 114° |
| 2026-05-08 20:21 | 25.27034 | 55.98753 | 32810 ft | 497 kts | 114° |
| 2026-05-08 20:21 | 25.24595 | 56.05914 | 32801 ft | 497 kts | 114° |
| 2026-05-08 20:22 | 25.22164 | 56.13037 | 32783 ft | 497 kts | 114° |
| 2026-05-08 20:22 | 25.20119 | 56.19018 | 32779 ft | 497 kts | 114° |
| 2026-05-08 20:23 | 25.17278 | 56.27317 | 32747 ft | 497 kts | 114° |
| 2026-05-08 20:23 | 25.14829 | 56.34457 | 32744 ft | 496 kts | 114° |
| 2026-05-08 20:24 | 25.12383 | 56.41577 | 32747 ft | 496 kts | 114° |
| 2026-05-08 20:24 | 25.09932 | 56.48695 | 32750 ft | 496 kts | 114° |
| 2026-05-08 20:25 | 25.07453 | 56.55791 | 32748 ft | 495 kts | 115° |
| 2026-05-08 20:25 | 25.04860 | 56.62827 | 32755 ft | 495 kts | 115° |
| 2026-05-08 20:26 | 25.02255 | 56.69798 | 32747 ft | 494 kts | 115° |
| 2026-05-08 20:26 | 24.99639 | 56.76813 | 32746 ft | 494 kts | 115° |
| 2026-05-08 20:27 | 24.97030 | 56.83823 | 32757 ft | 494 kts | 115° |
| 2026-05-08 20:27 | 24.94424 | 56.90824 | 32755 ft | 494 kts | 115° |
| 2026-05-08 20:28 | 24.91816 | 56.97821 | 32758 ft | 493 kts | 115° |
| 2026-05-08 20:28 | 24.89204 | 57.04816 | 32758 ft | 493 kts | 115° |
| 2026-05-08 20:29 | 24.86593 | 57.11795 | 32761 ft | 492 kts | 115° |
| 2026-05-08 20:29 | 24.83979 | 57.18768 | 32757 ft | 492 kts | 115° |
| 2026-05-08 20:30 | 24.81362 | 57.25738 | 32757 ft | 492 kts | 115° |
| 2026-05-08 20:30 | 24.78761 | 57.32657 | 32755 ft | 492 kts | 115° |
| 2026-05-08 20:31 | 24.76136 | 57.39626 | 32749 ft | 492 kts | 115° |
| 2026-05-08 20:31 | 24.73510 | 57.46586 | 32751 ft | 492 kts | 115° |
| 2026-05-08 20:32 | 24.70885 | 57.53535 | 32752 ft | 492 kts | 115° |
| 2026-05-08 20:32 | 24.68258 | 57.60473 | 32752 ft | 491 kts | 115° |
| 2026-05-08 20:33 | 24.65627 | 57.67413 | 32753 ft | 492 kts | 115° |
| 2026-05-08 20:33 | 24.62993 | 57.74352 | 32752 ft | 492 kts | 115° |
| 2026-05-08 20:34 | 24.60354 | 57.81287 | 32751 ft | 492 kts | 115° |
| 2026-05-08 20:35 | 24.56406 | 57.91640 | 32752 ft | 492 kts | 115° |
| 2026-05-08 20:35 | 24.53749 | 57.98589 | 32755 ft | 492 kts | 115° |
| 2026-05-08 20:36 | 24.51095 | 58.05517 | 32754 ft | 492 kts | 115° |
| 2026-05-08 20:36 | 24.48888 | 58.11273 | 32754 ft | 492 kts | 115° |
| 2026-05-08 20:37 | 24.46231 | 58.18197 | 32752 ft | 492 kts | 115° |
| 2026-05-08 20:37 | 24.43573 | 58.25115 | 32754 ft | 492 kts | 115° |
| 2026-05-08 20:38 | 24.40907 | 58.32046 | 32751 ft | 491 kts | 115° |
| 2026-05-08 20:38 | 24.38266 | 58.38905 | 32756 ft | 491 kts | 115° |
| 2026-05-08 20:39 | 24.35608 | 58.45798 | 32755 ft | 490 kts | 115° |
| 2026-05-08 20:39 | 24.32946 | 58.52685 | 32760 ft | 490 kts | 115° |
| 2026-05-08 20:40 | 24.30279 | 58.59568 | 32752 ft | 490 kts | 115° |
| 2026-05-08 20:40 | 24.27611 | 58.66446 | 32751 ft | 490 kts | 115° |
| 2026-05-08 20:41 | 24.24941 | 58.73319 | 32754 ft | 490 kts | 115° |
| 2026-05-08 20:41 | 24.22284 | 58.80146 | 32756 ft | 490 kts | 115° |
| 2026-05-08 20:42 | 24.19608 | 58.87011 | 32755 ft | 490 kts | 115° |
| 2026-05-08 20:42 | 24.16926 | 58.93880 | 32758 ft | 489 kts | 115° |
| 2026-05-08 20:43 | 24.14247 | 59.00732 | 32757 ft | 489 kts | 115° |
| 2026-05-08 20:43 | 24.11579 | 59.07547 | 32757 ft | 489 kts | 115° |
| 2026-05-08 20:44 | 24.08893 | 59.14394 | 32759 ft | 489 kts | 115° |
| 2026-05-08 20:44 | 24.06203 | 59.21243 | 32758 ft | 489 kts | 115° |
| 2026-05-08 20:45 | 24.03517 | 59.28070 | 32755 ft | 489 kts | 115° |
| 2026-05-08 20:45 | 24.00842 | 59.34914 | 32756 ft | 489 kts | 114° |
| 2026-05-08 20:46 | 23.98290 | 59.41761 | 32758 ft | 489 kts | 114° |
| 2026-05-08 20:46 | 23.95755 | 59.48661 | 32755 ft | 489 kts | 114° |
| 2026-05-08 20:47 | 23.93210 | 59.55554 | 32755 ft | 489 kts | 114° |
| 2026-05-08 20:47 | 23.90653 | 59.62438 | 32754 ft | 488 kts | 114° |
| 2026-05-08 20:48 | 23.88110 | 59.69265 | 32755 ft | 488 kts | 114° |
| 2026-05-08 20:48 | 23.85548 | 59.76131 | 32752 ft | 487 kts | 114° |
| 2026-05-08 20:49 | 23.82988 | 59.82985 | 32753 ft | 487 kts | 114° |
| 2026-05-08 20:49 | 23.80422 | 59.89850 | 32752 ft | 487 kts | 114° |
| 2026-05-08 20:50 | 23.77859 | 59.96701 | 32752 ft | 487 kts | 114° |
| 2026-05-08 20:50 | 23.75309 | 60.03503 | 32754 ft | 487 kts | 114° |
| 2026-05-08 20:51 | 23.72743 | 60.10339 | 32757 ft | 487 kts | 114° |
| 2026-05-08 20:51 | 23.70170 | 60.17180 | 32753 ft | 486 kts | 114° |
| 2026-05-08 20:52 | 23.67596 | 60.24015 | 32754 ft | 486 kts | 114° |
| 2026-05-08 20:52 | 23.65025 | 60.30830 | 32757 ft | 486 kts | 114° |
| 2026-05-08 20:53 | 23.62450 | 60.37648 | 32754 ft | 486 kts | 114° |
| 2026-05-08 20:53 | 23.59870 | 60.44466 | 32755 ft | 486 kts | 114° |
| 2026-05-08 20:54 | 23.57304 | 60.51236 | 32760 ft | 486 kts | 114° |
| 2026-05-08 20:54 | 23.54719 | 60.58046 | 32757 ft | 486 kts | 114° |
| 2026-05-08 20:55 | 23.52132 | 60.64853 | 32754 ft | 486 kts | 114° |
| 2026-05-08 20:55 | 23.49544 | 60.71652 | 32754 ft | 486 kts | 114° |
| 2026-05-08 20:56 | 23.46947 | 60.78463 | 32752 ft | 486 kts | 114° |
| 2026-05-08 20:56 | 23.44346 | 60.85273 | 32757 ft | 486 kts | 114° |
| 2026-05-08 20:57 | 23.41742 | 60.92079 | 32759 ft | 486 kts | 114° |
| 2026-05-08 20:57 | 23.39141 | 60.98873 | 32758 ft | 486 kts | 114° |
| 2026-05-08 20:58 | 23.36547 | 61.05633 | 32759 ft | 486 kts | 114° |
| 2026-05-08 20:58 | 23.33937 | 61.12426 | 32756 ft | 487 kts | 114° |
| 2026-05-08 20:59 | 23.31776 | 61.19378 | 32760 ft | 489 kts | 102° |
| 2026-05-08 20:59 | 23.30862 | 61.26712 | 32762 ft | 489 kts | 97° |
| 2026-05-08 21:00 | 23.30421 | 61.31589 | 32762 ft | 490 kts | 96° |
| 2026-05-08 21:01 | 23.30407 | 61.31752 | 32765 ft | 490 kts | 96° |
| 2026-05-08 21:02 | 23.29795 | 61.39134 | 32774 ft | 490 kts | 96° |
| 2026-05-08 21:02 | 23.29162 | 61.46524 | 32774 ft | 490 kts | 96° |
| 2026-05-08 21:03 | 23.28504 | 61.53909 | 32778 ft | 490 kts | 96° |
| 2026-05-08 21:03 | 23.27837 | 61.61286 | 32768 ft | 489 kts | 97° |
| 2026-05-08 21:04 | 23.27167 | 61.68668 | 32776 ft | 490 kts | 96° |
| 2026-05-08 21:04 | 23.26500 | 61.76007 | 32777 ft | 491 kts | 96° |
| 2026-05-08 21:05 | 23.25827 | 61.83386 | 32774 ft | 490 kts | 96° |
| 2026-05-08 21:05 | 23.25151 | 61.90759 | 32778 ft | 490 kts | 97° |
| 2026-05-08 21:06 | 23.24469 | 61.98146 | 32782 ft | 490 kts | 96° |
| 2026-05-08 21:06 | 23.23785 | 62.05518 | 32776 ft | 489 kts | 96° |
| 2026-05-08 21:07 | 23.23099 | 62.12848 | 32783 ft | 490 kts | 96° |
| 2026-05-08 21:07 | 23.22406 | 62.20219 | 32786 ft | 489 kts | 96° |
| 2026-05-08 21:08 | 23.21710 | 62.27581 | 32782 ft | 489 kts | 97° |
| 2026-05-08 21:08 | 23.21011 | 62.34941 | 32794 ft | 489 kts | 97° |
| 2026-05-08 21:09 | 23.20309 | 62.42314 | 32788 ft | 490 kts | 96° |
| 2026-05-08 21:09 | 23.19604 | 62.49679 | 32795 ft | 490 kts | 96° |
| 2026-05-08 21:10 | 23.18895 | 62.57034 | 32792 ft | 489 kts | 97° |
| 2026-05-08 21:10 | 23.18187 | 62.64342 | 32785 ft | 489 kts | 97° |
| 2026-05-08 21:11 | 23.17473 | 62.71685 | 32797 ft | 488 kts | 97° |
| 2026-05-08 21:11 | 23.16755 | 62.79037 | 32796 ft | 488 kts | 97° |
| 2026-05-08 21:12 | 23.16033 | 62.86377 | 32802 ft | 488 kts | 96° |
| 2026-05-08 21:12 | 23.15312 | 62.93689 | 32796 ft | 486 kts | 96° |
| 2026-05-08 21:13 | 23.14588 | 63.00993 | 32795 ft | 486 kts | 96° |
| 2026-05-08 21:13 | 23.13861 | 63.08294 | 32802 ft | 486 kts | 97° |
| 2026-05-08 21:14 | 23.13129 | 63.15598 | 32802 ft | 485 kts | 96° |
| 2026-05-08 21:14 | 23.12403 | 63.22826 | 32799 ft | 483 kts | 97° |
| 2026-05-08 21:15 | 23.11668 | 63.30085 | 32800 ft | 483 kts | 96° |
| 2026-05-08 21:15 | 23.10931 | 63.37345 | 32799 ft | 483 kts | 97° |
| 2026-05-08 21:16 | 23.10191 | 63.44603 | 32811 ft | 483 kts | 97° |
| 2026-05-08 21:16 | 23.09455 | 63.51788 | 32807 ft | 481 kts | 97° |
| 2026-05-08 21:17 | 23.08713 | 63.59000 | 32804 ft | 480 kts | 97° |
| 2026-05-08 21:17 | 23.07967 | 63.66216 | 32812 ft | 481 kts | 97° |
| 2026-05-08 21:18 | 23.07218 | 63.73432 | 32806 ft | 481 kts | 97° |
| 2026-05-08 21:18 | 23.06464 | 63.80651 | 32812 ft | 480 kts | 97° |
| 2026-05-08 21:19 | 23.05242 | 63.87780 | 32811 ft | 479 kts | 109° |
| 2026-05-08 21:19 | 23.02943 | 63.94526 | 32818 ft | 480 kts | 112° |
| 2026-05-08 21:20 | 23.00415 | 64.01225 | 32813 ft | 480 kts | 113° |
| 2026-05-08 21:20 | 22.97851 | 64.07916 | 32815 ft | 480 kts | 113° |
| 2026-05-08 21:21 | 22.95295 | 64.14630 | 32811 ft | 481 kts | 112° |
| 2026-05-08 21:21 | 22.92749 | 64.21354 | 32817 ft | 481 kts | 112° |
| 2026-05-08 21:22 | 22.90219 | 64.28037 | 32817 ft | 481 kts | 112° |
| 2026-05-08 21:22 | 22.87669 | 64.34762 | 32817 ft | 482 kts | 112° |
| 2026-05-08 21:23 | 22.85117 | 64.41481 | 32818 ft | 483 kts | 112° |
| 2026-05-08 21:23 | 22.82548 | 64.48232 | 32819 ft | 483 kts | 112° |
| 2026-05-08 21:24 | 22.80424 | 64.53808 | 32822 ft | 481 kts | 112° |
| 2026-05-08 21:24 | 22.77434 | 64.61646 | 32821 ft | 480 kts | 112° |
| 2026-05-08 21:25 | 22.75309 | 64.67206 | 32821 ft | 481 kts | 112° |
| 2026-05-08 21:25 | 22.72750 | 64.73894 | 32828 ft | 481 kts | 112° |
| 2026-05-08 21:26 | 22.70185 | 64.80588 | 32820 ft | 481 kts | 112° |
| 2026-05-08 21:26 | 22.67619 | 64.87275 | 32821 ft | 481 kts | 112° |
| 2026-05-08 21:27 | 22.65047 | 64.93966 | 32824 ft | 481 kts | 112° |
| 2026-05-08 21:27 | 22.62490 | 65.00604 | 32826 ft | 481 kts | 112° |
| 2026-05-08 21:28 | 22.59905 | 65.07301 | 32826 ft | 481 kts | 112° |
| 2026-05-08 21:28 | 22.57320 | 65.13991 | 32826 ft | 481 kts | 112° |
| 2026-05-08 21:29 | 22.54750 | 65.20639 | 32825 ft | 481 kts | 112° |
| 2026-05-08 21:29 | 22.52164 | 65.27320 | 32826 ft | 481 kts | 112° |
| 2026-05-08 21:30 | 22.49573 | 65.34007 | 32827 ft | 483 kts | 112° |
| 2026-05-08 21:30 | 22.46969 | 65.40725 | 32831 ft | 485 kts | 112° |
| 2026-05-08 21:31 | 22.44376 | 65.47402 | 32827 ft | 485 kts | 112° |
| 2026-05-08 21:31 | 22.41758 | 65.54131 | 32830 ft | 485 kts | 112° |
| 2026-05-08 21:32 | 22.39149 | 65.60825 | 32831 ft | 482 kts | 112° |
| 2026-05-08 21:32 | 22.36539 | 65.67510 | 32829 ft | 484 kts | 112° |
| 2026-05-08 21:33 | 22.33917 | 65.74214 | 32828 ft | 485 kts | 112° |
| 2026-05-08 21:33 | 22.31290 | 65.80924 | 32831 ft | 485 kts | 112° |
| 2026-05-08 21:34 | 22.28659 | 65.87632 | 32834 ft | 485 kts | 112° |
| 2026-05-08 21:34 | 22.26025 | 65.94341 | 32833 ft | 485 kts | 112° |
| 2026-05-08 21:35 | 22.23377 | 66.01075 | 32831 ft | 489 kts | 112° |
| 2026-05-08 21:35 | 22.20766 | 66.07707 | 32828 ft | 488 kts | 112° |
| 2026-05-08 21:36 | 22.18119 | 66.14421 | 32832 ft | 485 kts | 112° |
| 2026-05-08 21:36 | 22.15471 | 66.21125 | 32832 ft | 485 kts | 112° |
| 2026-05-08 21:37 | 22.12833 | 66.27795 | 32834 ft | 485 kts | 112° |
| 2026-05-08 21:37 | 22.10180 | 66.34494 | 32832 ft | 487 kts | 112° |
| 2026-05-08 21:38 | 22.07535 | 66.41165 | 32834 ft | 487 kts | 112° |
| 2026-05-08 21:38 | 22.04864 | 66.47890 | 32832 ft | 487 kts | 112° |
| 2026-05-08 21:39 | 22.02202 | 66.54585 | 32836 ft | 487 kts | 112° |
| 2026-05-08 21:39 | 21.99546 | 66.61255 | 32841 ft | 488 kts | 112° |
| 2026-05-08 21:40 | 21.96869 | 66.67972 | 32838 ft | 487 kts | 112° |
| 2026-05-08 21:40 | 21.94192 | 66.74677 | 32838 ft | 487 kts | 112° |
| 2026-05-08 21:41 | 21.90171 | 66.84732 | 32838 ft | 487 kts | 112° |
| 2026-05-08 21:41 | 21.87488 | 66.91430 | 32843 ft | 487 kts | 112° |
| 2026-05-08 21:42 | 21.84800 | 66.98132 | 32841 ft | 487 kts | 112° |
| 2026-05-08 21:42 | 21.82126 | 67.04787 | 32838 ft | 487 kts | 112° |
| 2026-05-08 21:43 | 21.79433 | 67.11482 | 32838 ft | 487 kts | 112° |
| 2026-05-08 21:43 | 21.76737 | 67.18174 | 32837 ft | 487 kts | 112° |
| 2026-05-08 21:44 | 21.74040 | 67.24860 | 32839 ft | 487 kts | 112° |
| 2026-05-08 21:44 | 21.71341 | 67.31542 | 32846 ft | 487 kts | 112° |
| 2026-05-08 21:45 | 21.68636 | 67.38230 | 32842 ft | 488 kts | 112° |
| 2026-05-08 21:45 | 21.65927 | 67.44919 | 32843 ft | 488 kts | 112° |
| 2026-05-08 21:46 | 21.63216 | 67.51603 | 32846 ft | 487 kts | 112° |
| 2026-05-08 21:46 | 21.60521 | 67.58238 | 32847 ft | 489 kts | 112° |
| 2026-05-08 21:47 | 21.57793 | 67.64947 | 32845 ft | 490 kts | 112° |
| 2026-05-08 21:47 | 21.55063 | 67.71650 | 32846 ft | 490 kts | 112° |
| 2026-05-08 21:48 | 21.52332 | 67.78347 | 32846 ft | 488 kts | 112° |
| 2026-05-08 21:48 | 21.49608 | 67.85016 | 32847 ft | 487 kts | 112° |
| 2026-05-08 21:49 | 21.46884 | 67.91678 | 32846 ft | 487 kts | 112° |
| 2026-05-08 21:49 | 21.44156 | 67.98341 | 32843 ft | 487 kts | 112° |
| 2026-05-08 21:50 | 21.41428 | 68.04996 | 32842 ft | 487 kts | 112° |
| 2026-05-08 21:50 | 21.38694 | 68.11655 | 32840 ft | 487 kts | 112° |
| 2026-05-08 21:51 | 21.35973 | 68.18275 | 32843 ft | 487 kts | 112° |
| 2026-05-08 21:51 | 21.33214 | 68.24977 | 32846 ft | 489 kts | 112° |
| 2026-05-08 21:52 | 21.30479 | 68.31610 | 32844 ft | 488 kts | 112° |
| 2026-05-08 21:52 | 21.27733 | 68.38257 | 32846 ft | 487 kts | 112° |
| 2026-05-08 21:53 | 21.24986 | 68.44895 | 32845 ft | 487 kts | 112° |
| 2026-05-08 21:53 | 21.22235 | 68.51536 | 32846 ft | 487 kts | 112° |
| 2026-05-08 21:54 | 21.19482 | 68.58178 | 32845 ft | 488 kts | 112° |
| 2026-05-08 21:54 | 21.16722 | 68.64832 | 32842 ft | 489 kts | 112° |
| 2026-05-08 21:55 | 21.13977 | 68.71444 | 32842 ft | 489 kts | 112° |
| 2026-05-08 21:56 | 21.09826 | 68.81429 | 32842 ft | 489 kts | 112° |
| 2026-05-08 21:56 | 21.07048 | 68.88097 | 32840 ft | 489 kts | 112° |
| 2026-05-08 21:57 | 21.04275 | 68.94739 | 32841 ft | 488 kts | 112° |
| 2026-05-08 21:57 | 21.01522 | 69.01328 | 32838 ft | 488 kts | 112° |
| 2026-05-08 21:58 | 20.98749 | 69.07955 | 32837 ft | 488 kts | 112° |
| 2026-05-08 21:58 | 20.96375 | 69.14746 | 32836 ft | 487 kts | 107° |
| 2026-05-08 21:59 | 20.94273 | 69.21629 | 32836 ft | 487 kts | 106° |
| 2026-05-08 21:59 | 20.92183 | 69.28536 | 32832 ft | 488 kts | 106° |
| 2026-05-08 22:00 | 20.90092 | 69.35451 | 32832 ft | 488 kts | 106° |
| 2026-05-08 22:00 | 20.87998 | 69.42368 | 32834 ft | 489 kts | 106° |
| 2026-05-08 22:01 | 20.85901 | 69.49285 | 32831 ft | 489 kts | 106° |
| 2026-05-08 22:01 | 20.83814 | 69.56157 | 32835 ft | 489 kts | 106° |
| 2026-05-08 22:02 | 20.81707 | 69.63086 | 32832 ft | 490 kts | 106° |
| 2026-05-08 22:02 | 20.79590 | 69.70032 | 32829 ft | 490 kts | 106° |
| 2026-05-08 22:03 | 20.77475 | 69.76966 | 32829 ft | 490 kts | 106° |
| 2026-05-08 22:03 | 20.75357 | 69.83897 | 32821 ft | 490 kts | 106° |
| 2026-05-08 22:04 | 20.73236 | 69.90826 | 32824 ft | 492 kts | 106° |
| 2026-05-08 22:04 | 20.71121 | 69.97725 | 32818 ft | 492 kts | 106° |
| 2026-05-08 22:05 | 20.68985 | 70.04680 | 32820 ft | 493 kts | 106° |
| 2026-05-08 22:05 | 20.66844 | 70.11643 | 32820 ft | 493 kts | 106° |
| 2026-05-08 22:06 | 20.64700 | 70.18603 | 32818 ft | 492 kts | 107° |
| 2026-05-08 22:06 | 20.62567 | 70.25516 | 32808 ft | 493 kts | 107° |
| 2026-05-08 22:07 | 20.60414 | 70.32484 | 32816 ft | 494 kts | 107° |
| 2026-05-08 22:07 | 20.58259 | 70.39444 | 32813 ft | 494 kts | 107° |
| 2026-05-08 22:08 | 20.56103 | 70.46402 | 32813 ft | 493 kts | 107° |
| 2026-05-08 22:08 | 20.53954 | 70.53324 | 32810 ft | 494 kts | 107° |
| 2026-05-08 22:09 | 20.51788 | 70.60287 | 32810 ft | 494 kts | 107° |
| 2026-05-08 22:09 | 20.49619 | 70.67253 | 32804 ft | 494 kts | 107° |
| 2026-05-08 22:10 | 20.47449 | 70.74209 | 32801 ft | 494 kts | 107° |
| 2026-05-08 22:10 | 20.45275 | 70.81167 | 32801 ft | 494 kts | 107° |
| 2026-05-08 22:11 | 20.43102 | 70.88114 | 32802 ft | 494 kts | 107° |
| 2026-05-08 22:11 | 20.40935 | 70.95029 | 32802 ft | 496 kts | 107° |
| 2026-05-08 22:12 | 20.38745 | 71.02004 | 32796 ft | 496 kts | 107° |
| 2026-05-08 22:12 | 20.36553 | 71.08977 | 32793 ft | 496 kts | 107° |
| 2026-05-08 22:13 | 20.34360 | 71.15944 | 32793 ft | 495 kts | 107° |
| 2026-05-08 22:13 | 20.32163 | 71.22910 | 32794 ft | 496 kts | 107° |
| 2026-05-08 22:14 | 20.29964 | 71.29873 | 32793 ft | 496 kts | 107° |
| 2026-05-08 22:14 | 20.27770 | 71.36811 | 32796 ft | 496 kts | 107° |
| 2026-05-08 22:15 | 20.25940 | 71.42590 | 32659 ft | 495 kts | 107° |
| 2026-05-08 22:15 | 20.24839 | 71.46060 | 32283 ft | 495 kts | 107° |
| 2026-05-08 22:15 | 20.23739 | 71.49528 | 31897 ft | 496 kts | 106° |
| 2026-05-08 22:15 | 20.22633 | 71.53011 | 31514 ft | 497 kts | 107° |
| 2026-05-08 22:16 | 20.21311 | 71.56417 | 31134 ft | 500 kts | 118° |
| 2026-05-08 22:16 | 20.19291 | 71.59433 | 30767 ft | 502 kts | 129° |
| 2026-05-08 22:16 | 20.16975 | 71.62168 | 30405 ft | 505 kts | 132° |
| 2026-05-08 22:16 | 20.14567 | 71.64903 | 30048 ft | 506 kts | 132° |
| 2026-05-08 22:17 | 20.12158 | 71.67638 | 29659 ft | 505 kts | 131° |
| 2026-05-08 22:17 | 20.09759 | 71.70373 | 29229 ft | 503 kts | 131° |
| 2026-05-08 22:17 | 20.07387 | 71.73087 | 28813 ft | 500 kts | 131° |
| 2026-05-08 22:17 | 20.05025 | 71.75795 | 28405 ft | 497 kts | 131° |
| 2026-05-08 22:18 | 20.02674 | 71.78493 | 28006 ft | 495 kts | 131° |
| 2026-05-08 22:18 | 20.00342 | 71.81171 | 27613 ft | 492 kts | 131° |
| 2026-05-08 22:18 | 19.98025 | 71.83830 | 27219 ft | 489 kts | 131° |
| 2026-05-08 22:18 | 19.95717 | 71.86480 | 26846 ft | 487 kts | 131° |
| 2026-05-08 22:19 | 19.93418 | 71.89118 | 26456 ft | 484 kts | 131° |
| 2026-05-08 22:19 | 19.91133 | 71.91739 | 26070 ft | 482 kts | 131° |
| 2026-05-08 22:19 | 19.88854 | 71.94351 | 25716 ft | 481 kts | 131° |
| 2026-05-08 22:19 | 19.86615 | 71.96917 | 25353 ft | 480 kts | 131° |
| 2026-05-08 22:20 | 19.84347 | 71.99515 | 24994 ft | 477 kts | 132° |
| 2026-05-08 22:20 | 19.82097 | 72.02092 | 24636 ft | 474 kts | 132° |
| 2026-05-08 22:20 | 19.79859 | 72.04652 | 24285 ft | 472 kts | 132° |
| 2026-05-08 22:20 | 19.77609 | 72.07193 | 23935 ft | 470 kts | 134° |
| 2026-05-08 22:21 | 19.75238 | 72.09574 | 23593 ft | 468 kts | 137° |
| 2026-05-08 22:21 | 19.72823 | 72.11884 | 23212 ft | 466 kts | 138° |
| 2026-05-08 22:21 | 19.70409 | 72.14171 | 22805 ft | 464 kts | 138° |
| 2026-05-08 22:21 | 19.68009 | 72.16444 | 22401 ft | 460 kts | 137° |
| 2026-05-08 22:22 | 19.65632 | 72.18698 | 22000 ft | 456 kts | 137° |
| 2026-05-08 22:22 | 19.63279 | 72.20930 | 21611 ft | 452 kts | 137° |
| 2026-05-08 22:22 | 19.60942 | 72.23146 | 21218 ft | 449 kts | 137° |
| 2026-05-08 22:22 | 19.58625 | 72.25344 | 20834 ft | 445 kts | 137° |
| 2026-05-08 22:23 | 19.56325 | 72.27525 | 20453 ft | 441 kts | 137° |
| 2026-05-08 22:23 | 19.54047 | 72.29686 | 20083 ft | 437 kts | 137° |
| 2026-05-08 22:23 | 19.51790 | 72.31824 | 19711 ft | 433 kts | 137° |
| 2026-05-08 22:23 | 19.49581 | 72.33916 | 19352 ft | 430 kts | 137° |
| 2026-05-08 22:24 | 19.47361 | 72.36018 | 18996 ft | 426 kts | 137° |
| 2026-05-08 22:24 | 19.45154 | 72.38107 | 18632 ft | 423 kts | 137° |
| 2026-05-08 22:24 | 19.42971 | 72.40173 | 18274 ft | 419 kts | 137° |
| 2026-05-08 22:24 | 19.40806 | 72.42221 | 17884 ft | 415 kts | 137° |
| 2026-05-08 22:25 | 19.38659 | 72.44252 | 17474 ft | 412 kts | 137° |
| 2026-05-08 22:25 | 19.36531 | 72.46263 | 17081 ft | 408 kts | 137° |
| 2026-05-08 22:25 | 19.34420 | 72.48258 | 16684 ft | 405 kts | 137° |
| 2026-05-08 22:25 | 19.32328 | 72.50234 | 16293 ft | 401 kts | 137° |
| 2026-05-08 22:26 | 19.30256 | 72.52191 | 15903 ft | 397 kts | 137° |
| 2026-05-08 22:26 | 19.28198 | 72.54133 | 15514 ft | 394 kts | 137° |
| 2026-05-08 22:26 | 19.26166 | 72.56055 | 15137 ft | 390 kts | 136° |
| 2026-05-08 22:26 | 19.24315 | 72.58074 | 14766 ft | 382 kts | 128° |
| 2026-05-08 22:27 | 19.22891 | 72.60357 | 14405 ft | 365 kts | 116° |
| 2026-05-08 22:27 | 19.21984 | 72.62805 | 14050 ft | 350 kts | 104° |
| 2026-05-08 22:27 | 19.21581 | 72.65294 | 13689 ft | 338 kts | 94° |
| 2026-05-08 22:27 | 19.21502 | 72.67739 | 13297 ft | 327 kts | 90° |
| 2026-05-08 22:28 | 19.21495 | 72.70093 | 12893 ft | 310 kts | 89° |
| 2026-05-08 22:28 | 19.21495 | 72.72302 | 12498 ft | 291 kts | 89° |
| 2026-05-08 22:28 | 19.21492 | 72.74388 | 12113 ft | 276 kts | 89° |
| 2026-05-08 22:28 | 19.21486 | 72.76372 | 11729 ft | 264 kts | 90° |
| 2026-05-08 22:29 | 19.21477 | 72.78298 | 11355 ft | 261 kts | 89° |
| 2026-05-08 22:29 | 19.21468 | 72.80220 | 10978 ft | 260 kts | 90° |
| 2026-05-08 22:29 | 19.21457 | 72.82103 | 10606 ft | 258 kts | 89° |
| 2026-05-08 22:29 | 19.21445 | 72.83998 | 10235 ft | 256 kts | 89° |
| 2026-05-08 22:30 | 19.21433 | 72.85876 | 9872 ft | 254 kts | 89° |
| 2026-05-08 22:30 | 19.21420 | 72.87743 | 9490 ft | 252 kts | 89° |
| 2026-05-08 22:30 | 19.21407 | 72.89592 | 9084 ft | 251 kts | 89° |
| 2026-05-08 22:30 | 19.21395 | 72.91435 | 8692 ft | 250 kts | 89° |
| 2026-05-08 22:31 | 19.21382 | 72.93273 | 8309 ft | 249 kts | 89° |
| 2026-05-08 22:31 | 19.21369 | 72.95105 | 7927 ft | 248 kts | 89° |
| 2026-05-08 22:31 | 19.21355 | 72.96930 | 7545 ft | 248 kts | 88° |
| 2026-05-08 22:31 | 19.21346 | 72.98136 | 7296 ft | 247 kts | 88° |
| 2026-05-08 22:32 | 19.21328 | 73.00545 | 6803 ft | 247 kts | 88° |
| 2026-05-08 22:32 | 19.21314 | 73.02357 | 6436 ft | 246 kts | 88° |
| 2026-05-08 22:32 | 19.21300 | 73.04162 | 6058 ft | 245 kts | 88° |
| 2026-05-08 22:32 | 19.21286 | 73.05967 | 5678 ft | 244 kts | 87° |
| 2026-05-08 22:33 | 19.21272 | 73.07761 | 5297 ft | 244 kts | 87° |
| 2026-05-08 22:33 | 19.21258 | 73.09555 | 4924 ft | 243 kts | 87° |
| 2026-05-08 22:33 | 19.21244 | 73.11350 | 4552 ft | 243 kts | 87° |
| 2026-05-08 22:33 | 19.21064 | 73.13127 | 4158 ft | 246 kts | 107° |
| 2026-05-08 22:34 | 19.20124 | 73.14623 | 3872 ft | 248 kts | 138° |
| 2026-05-08 22:34 | 19.18627 | 73.15518 | 3832 ft | 247 kts | 158° |
| 2026-05-08 22:34 | 19.17022 | 73.15981 | 3818 ft | 235 kts | 174° |
| 2026-05-08 22:34 | 19.15423 | 73.15989 | 3812 ft | 233 kts | 182° |
| 2026-05-08 22:35 | 19.13787 | 73.15888 | 3838 ft | 232 kts | 184° |
| 2026-05-08 22:35 | 19.12200 | 73.15776 | 3821 ft | 232 kts | 184° |
| 2026-05-08 22:35 | 19.10649 | 73.15384 | 3809 ft | 230 kts | 213° |
| 2026-05-08 22:35 | 19.09649 | 73.14124 | 3819 ft | 224 kts | 249° |
| 2026-05-08 22:36 | 19.09271 | 73.12552 | 3815 ft | 220 kts | 268° |
| 2026-05-08 22:36 | 19.09221 | 73.10938 | 3810 ft | 219 kts | 273° |
| 2026-05-08 22:36 | 19.09211 | 73.09327 | 3793 ft | 217 kts | 273° |
| 2026-05-08 22:36 | 19.09190 | 73.07793 | 3637 ft | 201 kts | 272° |
| 2026-05-08 22:37 | 19.09162 | 73.06350 | 3377 ft | 192 kts | 273° |
| 2026-05-08 22:37 | 19.09142 | 73.04956 | 3102 ft | 187 kts | 273° |
| 2026-05-08 22:37 | 19.09123 | 73.03609 | 2852 ft | 179 kts | 273° |
| 2026-05-08 22:37 | 19.09103 | 73.02318 | 2616 ft | 172 kts | 272° |
| 2026-05-08 22:38 | 19.09085 | 73.01057 | 2393 ft | 171 kts | 272° |
| 2026-05-08 22:38 | 19.09067 | 72.99799 | 2182 ft | 171 kts | 272° |
| 2026-05-08 22:38 | 19.09048 | 72.98577 | 1967 ft | 165 kts | 272° |
| 2026-05-08 22:38 | 19.09030 | 72.97418 | 1777 ft | 150 kts | 272° |
| 2026-05-08 22:39 | 19.09014 | 72.96334 | 1596 ft | 147 kts | 272° |
| 2026-05-08 22:39 | 19.08999 | 72.95256 | 1387 ft | 147 kts | 271° |
| 2026-05-08 22:39 | 19.08983 | 72.94183 | 1202 ft | 145 kts | 273° |
| 2026-05-08 22:39 | 19.08968 | 72.93121 | 1021 ft | 145 kts | 272° |
| 2026-05-08 22:40 | 19.08952 | 72.92056 | 845 ft | 144 kts | 271° |
| 2026-05-08 22:40 | 19.08936 | 72.91001 | 675 ft | 144 kts | 271° |
| 2026-05-08 22:40 | 19.08920 | 72.89943 | 502 ft | 144 kts | 270° |
| 2026-05-08 22:40 | 19.08905 | 72.88900 | 318 ft | 144 kts | 270° |
| 2026-05-08 22:41 | 19.08888 | 72.87865 | 148 ft | 142 kts | 271° |
| 2026-05-08 22:41 | 19.08873 | 72.86831 | 42 ft | 134 kts | 270° |
| 2026-05-08 22:41 | 19.08861 | 72.85983 | 30 ft | 74 kts | 269° |
| 2026-05-08 22:41 | 19.08899 | 72.85612 | 29 ft | 47 kts | 288° |
| 2026-05-08 22:42 | 19.08997 | 72.85492 | 30 ft | 11 kts | 32° |
| 2026-05-08 22:42 | 19.09026 | 72.85591 | 30 ft | 19 kts | 90° |
| 2026-05-08 22:42 | 19.09026 | 72.85639 | 30 ft | 20 kts | 90° |
| 2026-05-08 22:42 | 19.09033 | 72.86008 | 32 ft | 41 kts | 89° |
| 2026-05-08 22:43 | 19.09039 | 72.86311 | 35 ft | 41 kts | 90° |
| 2026-05-08 22:43 | 19.09042 | 72.86614 | 36 ft | 41 kts | 89° |
| 2026-05-08 22:43 | 19.09075 | 72.86801 | 36 ft | 19 kts | 44° |
| 2026-05-08 22:43 | 19.09130 | 72.86918 | 36 ft | 18 kts | 87° |
| 2026-05-08 22:44 | 19.09135 | 72.87056 | 37 ft | 20 kts | 88° |
| 2026-05-08 22:44 | 19.09140 | 72.87207 | 37 ft | 20 kts | 82° |
| 2026-05-08 22:44 | 19.09216 | 72.87279 | 37 ft | 15 kts | 37° |
| 2026-05-08 22:44 | 19.09277 | 72.87362 | 37 ft | 14 kts | 17° |
| 2026-05-08 22:45 | 19.09375 | 72.87384 | 38 ft | 14 kts | 27° |
| 2026-05-08 22:45 | 19.09415 | 72.87378 | 37 ft | 6 kts | 320° |
| 2026-05-08 22:45 | 19.09447 | 72.87348 | 37 ft | 1 kts | 317° |
| 2026-05-08 22:45 | 19.09459 | 72.87337 | 37 ft | 1 kts | 317° |